Aeroporto :
LOGIN :

Iscrizione | Disclaimer

   EN    FR    IT 

 










Sommario :    VFR   VFR Marginale   IFR   IFR Intensivo   IFR Molto Intensivo
Visibilità : 
Base nubi : 
>= 8 km
>= 3000ft
5 / 8 km
1000 / 3000 ft
1500m / 5 km
500 / 1000 ft
800 / 1500m
200 / 500 ft
< 800m
< 200 ft
Simboli :   Temporali  Nebbia  Neve Forte  Precipitazioni Forti  Vento > 20 kt
SIGMETs :   Varie  Temporali  Ghiacco  Turbolenza  Onda orograficha  Ceneri Vulcaniche






- Altitudine del aeroporto : 37 ft
- Codice IATA : HLY


EGOV - RAF Valley

ULTIMO METAR :
  • 221220Z 08006KT 9999 -SHRA FEW020 BKN032 BKN110 09/05 Q0991 NOSIG RMK BLU BLU

METARs OBSOLETI :
  • 221150Z 09008KT 9999 FEW033 SCT052 BKN070 08/04 Q0991 NOSIG RMK BLU BLU
  • 221120Z 08007KT 9999 FEW025 SCT110 08/04 Q0991 NOSIG RMK BLU BLU
  • 221050Z 10010KT 9999 FEW025 09/04 Q0992 NOSIG RMK BLU BLU
  • 221021Z 09007KT 9999 FEW030 SCT200 09/05 Q0992 NOSIG RMK BLU BLU
  • 220950Z 07006KT 9999 FEW020 BKN200 07/05 Q0992 NOSIG RMK BLU BLU
  • 220920Z 07007KT 9999 FEW020 SCT200 07/05 Q0992 NOSIG RMK BLU BLU

TAF TAF EGOV
Valido dal 22 a 12 ore il 22 a 18 ore UTC


221040Z 2212/2218 10010KT 9999 SCT040



MetMap, La meteo Aeronautica in un colpo d'occhio ! - Copyright ORBIFLY Dicembre 2007 - Disclaimer

ORBIFLY MET'MAP TEAM :

Programmazione e sviluppo : Alexandra Zaïnal
Concezione e sviluppo : Baudouin d'Aumeries
Co-Programmazione e sviluppo : Marc-Olivier Méhu
Supporto tecnico e logistico : Manuel Goepfert
Aiuto per la traduzione : Arnaldo La Scala

Contatto : metmap@orbifly.com




FONTI E CREDITI :

   NOAA